Juneau, AK

12:15 PM AKDT on April 24, 2017 (GMT -0800)
Juneau International | | Change Station

Elev 16 ft 58.35 °N, 134.58 °W | Updated 22 minutes ago

Overcast
Overcast
51 °F
Feels Like 51 °F
N
7
Wind Variable Wind from SW

Today
High -- | Low -- °F
--% Chance of Precip.
Yesterday
High -- | Low -- °F
Precip. -- in
Pressure 29.80 in
Visibility 10.0 miles
Clouds Mostly Cloudy 4400 ft
Mostly Cloudy 8000 ft
Overcast 20000 ft
Dew Point 43 °F
Humidity 74%
Rainfall 0.00 in
Snow Depth Not available.
5:21 AM 8:33 PM
Waning Crescent, 4% visible
METAR PAJN 241953Z 22006KT 10SM BKN044 BKN080 OVC200 11/06 A2980 RMK AO2 SLP090 T01060061
Pressure 29.80 in
Visibility 10.0 miles
Clouds Mostly Cloudy 4400 ft
Mostly Cloudy 8000 ft
Overcast 20000 ft
Dew Point 43 °F
Humidity 74%
Rainfall 0.00 in
Snow Depth Not available.
5:21 AM 8:33 PM
Waning Crescent, 4% visible
METAR PAJN 241953Z 22006KT 10SM BKN044 BKN080 OVC200 11/06 A2980 RMK AO2 SLP090 T01060061

Get Severe Weather Alerts

Thanks for signing up!

Be on the lookout for a verification email in your inbox.

You'll start receiving the daily forecast at 8 AM.

×

10-Day Weather Forecast

Almanac

Astronomy

Apr. 24, 2017 Rise Set
Actual Time
Civil Twilight
Nautical Twilight
Astronomical Twilight
Moon
Length of Visible Light
Length of Day
Tomorrow will be .
, % of the Moon is Illuminated

Today's Extremes

State Highs State Lows

Community

WunderPhotos

WunderBlog® & News

Nearby

Air Quality

  Air Quality AQ Index Pollutant
Not available.

Snow Depth

Station Depth Elevation

Earthquake Activity

City Distance Mag. Time & Date
Minimum magnitude displayed is 2.5.

Coastal Water Temperatures

Place Temperature

Stations

Nearby Weather Stations

Station Location Temp. Windchill Dew Point Humidity Wind Precip. Elev Updated Type
                   

Watches & Warnings

There are currently no watches in effect.